Terminal Aerodrome Forecast
Issued by NWS

Home | Current Version | Previous Version | Text Only | Print | Product List | Glossary On
Versions: 1 2 3 4 5 6 7 8 9 10 11 12 13 14 15 16 17 18 19 20 21
000
FTAK31 PAFA 162344
TAFAQT
TAF
PAQT 162344Z 1700/1724 27008KT P6SM BKN004
     FM170200 29005KT P6SM VCFG BKN008
     FM171000 30006KT 2SM BR OVC015
     FM172100 03007KT 5SM BR OVC015=

USA.gov is the U.S. government's official web portal to all federal, state and local government web resources and services.